createdAt,value
2017-11-11T00:01:18.017Z,13.77
2017-11-11T00:03:45.515Z,17.02
2017-11-11T00:06:13.049Z,17.77
2017-11-11T00:08:40.554Z,15.75
2017-11-11T00:11:08.074Z,9.40
2017-11-11T00:13:35.690Z,14.45
2017-11-11T00:16:03.181Z,16.33
2017-11-11T00:18:30.700Z,11.00
2017-11-11T00:20:58.237Z,13.48
2017-11-11T00:23:25.752Z,22.85
2017-11-11T00:25:53.250Z,11.95
2017-11-11T00:28:21.536Z,13.90
2017-11-11T00:30:49.064Z,9.07
2017-11-11T00:33:16.593Z,11.18
2017-11-11T00:35:44.105Z,9.65
2017-11-11T00:38:11.603Z,12.25
2017-11-11T00:40:39.117Z,19.10
2017-11-11T00:43:07.485Z,13.93
2017-11-11T00:45:35.804Z,14.73
2017-11-11T00:48:03.338Z,10.95
2017-11-11T00:50:30.838Z,11.40
2017-11-11T00:52:58.353Z,10.73
2017-11-11T00:55:27.081Z,9.50
2017-11-11T00:57:54.752Z,10.20
2017-11-11T01:00:22.271Z,10.10
2017-11-11T01:02:49.821Z,8.98
2017-11-11T01:05:17.326Z,14.95
2017-11-11T01:07:44.821Z,23.10
2017-11-11T01:10:13.110Z,11.40
2017-11-11T01:12:41.375Z,12.10
2017-11-11T01:15:09.685Z,15.35
2017-11-11T01:17:37.399Z,10.55
2017-11-11T01:20:04.894Z,14.75
2017-11-11T01:22:33.172Z,12.50
2017-11-11T01:25:00.711Z,20.08
2017-11-11T01:27:29.004Z,10.00
2017-11-11T01:29:56.532Z,9.95
2017-11-11T01:32:24.050Z,14.63
2017-11-11T01:34:51.576Z,14.07
2017-11-11T01:37:19.093Z,13.73
2017-11-11T01:39:46.990Z,25.50
2017-11-11T01:42:15.278Z,12.95
2017-11-11T01:44:42.937Z,8.52
2017-11-11T01:47:10.478Z,13.98
2017-11-11T01:49:37.966Z,8.63
2017-11-11T01:52:05.575Z,7.78
2017-11-11T01:54:33.166Z,8.90
2017-11-11T01:57:01.455Z,10.90
2017-11-11T01:59:28.972Z,8.77
2017-11-11T02:01:56.487Z,18.42
2017-11-11T02:04:23.994Z,14.68
2017-11-11T02:06:51.500Z,15.15
2017-11-11T02:09:19.050Z,16.70
2017-11-11T02:11:47.298Z,11.40
2017-11-11T02:14:14.842Z,11.70
2017-11-11T02:16:42.352Z,12.30
2017-11-11T02:19:09.869Z,10.43
2017-11-11T02:21:37.392Z,10.50
2017-11-11T02:24:05.809Z,15.15
2017-11-11T02:26:33.356Z,8.50
2017-11-11T02:29:00.845Z,13.90
2017-11-11T02:31:29.118Z,12.40
2017-11-11T02:33:57.936Z,18.83
2017-11-11T02:36:25.548Z,10.40
2017-11-11T02:38:53.104Z,9.50
2017-11-11T02:41:21.374Z,17.62
2017-11-11T02:43:48.900Z,15.32
2017-11-11T02:46:16.414Z,9.57
2017-11-11T02:48:44.705Z,19.75
2017-11-11T02:51:12.990Z,16.90
2017-11-11T02:53:40.618Z,10.52
2017-11-11T02:56:08.175Z,11.93
2017-11-11T02:58:35.705Z,19.77
2017-11-11T03:01:03.232Z,11.32
2017-11-11T03:03:30.849Z,12.40
2017-11-11T03:05:58.385Z,13.95
2017-11-11T03:08:25.938Z,15.32
2017-11-11T03:10:53.462Z,13.40
2017-11-11T03:13:20.980Z,13.27
2017-11-11T03:15:48.542Z,18.83
2017-11-11T03:18:16.116Z,8.40
2017-11-11T03:20:43.631Z,15.70
2017-11-11T03:26:05.005Z,14.38
2017-11-11T03:28:32.499Z,19.50
2017-11-11T03:31:00.002Z,13.35
2017-11-11T03:33:27.521Z,12.77
2017-11-11T03:35:55.384Z,10.57
2017-11-11T03:38:22.887Z,7.97
2017-11-11T03:40:50.413Z,12.98
2017-11-11T03:43:17.930Z,13.10
2017-11-11T03:45:45.453Z,17.83
2017-11-11T03:48:13.770Z,10.00
2017-11-11T03:50:41.293Z,8.27
2017-11-11T03:53:08.810Z,11.77
2017-11-11T03:55:36.339Z,9.80
2017-11-11T03:58:03.861Z,16.83
2017-11-11T04:00:32.169Z,9.90
2017-11-11T04:03:00.144Z,9.45
2017-11-11T04:05:27.681Z,14.10
2017-11-11T04:07:55.385Z,13.60
2017-11-11T04:10:22.941Z,6.47
2017-11-11T04:12:50.669Z,14.70
2017-11-11T04:15:18.197Z,9.57
2017-11-11T04:17:46.504Z,8.25
2017-11-11T04:20:14.031Z,10.20
2017-11-11T04:22:41.536Z,8.30
2017-11-11T04:25:09.057Z,12.50
2017-11-11T04:27:37.344Z,13.35
2017-11-11T04:30:05.616Z,8.82
2017-11-11T04:32:33.896Z,16.75
2017-11-11T04:35:01.425Z,15.55
2017-11-11T04:37:28.917Z,13.48
2017-11-11T04:39:57.364Z,12.05
2017-11-11T04:42:24.886Z,9.35
2017-11-11T04:44:52.392Z,10.93
2017-11-11T04:47:20.693Z,17.50
2017-11-11T04:49:48.212Z,23.95
2017-11-11T04:52:15.912Z,9.32
2017-11-11T04:54:43.614Z,10.30
2017-11-11T04:57:11.158Z,10.55
2017-11-11T04:59:38.662Z,16.77
2017-11-11T05:02:06.182Z,12.15
2017-11-11T05:04:33.694Z,16.00
2017-11-11T05:07:01.989Z,11.15
2017-11-11T05:09:29.521Z,17.73
2017-11-11T05:11:57.155Z,12.02
2017-11-11T05:14:24.762Z,13.68
2017-11-11T05:16:53.052Z,27.13
2017-11-11T05:19:21.402Z,17.98
2017-11-11T05:21:48.977Z,11.12
2017-11-11T05:24:16.508Z,12.90
2017-11-11T05:26:44.023Z,14.32
2017-11-11T05:29:11.538Z,16.60
2017-11-11T05:31:39.829Z,12.18
2017-11-11T05:34:07.358Z,21.62
2017-11-11T05:36:35.344Z,16.15
2017-11-11T05:39:02.880Z,13.82
2017-11-11T05:41:30.383Z,16.50
2017-11-11T05:43:57.928Z,19.60
2017-11-11T05:46:26.204Z,13.40
2017-11-11T05:48:54.473Z,18.42
2017-11-11T05:51:22.749Z,12.45
2017-11-11T05:53:51.033Z,16.90
2017-11-11T05:56:19.313Z,15.48
2017-11-11T05:58:47.664Z,23.75
2017-11-11T06:01:15.380Z,21.20
2017-11-11T06:03:42.878Z,14.05
2017-11-11T06:06:10.386Z,11.45
2017-11-11T06:08:37.885Z,15.23
2017-11-11T06:11:05.396Z,17.35
2017-11-11T06:13:32.916Z,9.20
2017-11-11T06:16:00.434Z,15.85
2017-11-11T06:18:27.949Z,11.63
2017-11-11T06:20:56.272Z,16.52
2017-11-11T06:23:23.788Z,13.10
2017-11-11T06:25:52.071Z,14.80
2017-11-11T06:28:20.356Z,11.50
2017-11-11T06:30:47.872Z,19.98
2017-11-11T06:33:15.386Z,17.95
2017-11-11T06:35:42.898Z,15.65
2017-11-11T06:38:10.402Z,14.65
2017-11-11T06:40:37.904Z,16.17
2017-11-11T06:43:05.433Z,13.95
2017-11-11T06:45:33.807Z,18.80
2017-11-11T06:48:01.316Z,14.07
2017-11-11T06:50:28.945Z,15.70
2017-11-11T06:52:56.463Z,17.08
2017-11-11T06:55:23.954Z,17.85
2017-11-11T06:57:51.614Z,16.37
2017-11-11T07:00:19.197Z,14.55
2017-11-11T07:02:46.699Z,20.75
2017-11-11T07:05:15.154Z,16.27
2017-11-11T07:07:42.712Z,21.42
2017-11-11T07:10:10.204Z,18.67
2017-11-11T07:12:37.712Z,16.92
2017-11-11T07:15:05.244Z,15.52
2017-11-11T07:17:32.754Z,14.20
2017-11-11T07:20:00.485Z,12.88
2017-11-11T07:22:28.555Z,28.50
2017-11-11T07:24:56.537Z,21.27
2017-11-11T07:27:24.303Z,21.95
2017-11-11T07:29:51.808Z,19.80
2017-11-11T07:32:19.814Z,19.27
2017-11-11T07:34:48.671Z,21.85
2017-11-11T07:37:16.504Z,28.90
2017-11-11T07:39:45.071Z,31.55
2017-11-11T07:42:12.605Z,20.08
2017-11-11T07:44:41.410Z,25.90
2017-11-11T07:47:09.495Z,23.65
2017-11-11T07:49:38.189Z,27.95
2017-11-11T07:52:05.721Z,21.02
2017-11-11T07:54:33.491Z,24.90
2017-11-11T07:57:01.044Z,26.02
2017-11-11T07:59:28.840Z,26.08
2017-11-11T08:01:56.899Z,17.33
2017-11-11T08:04:24.465Z,28.77
2017-11-11T08:06:52.176Z,33.20
2017-11-11T08:09:19.665Z,32.95
2017-11-11T08:11:47.630Z,30.23
2017-11-11T08:14:15.136Z,36.88
2017-11-11T08:16:43.873Z,25.08
2017-11-11T08:19:11.546Z,23.98
2017-11-11T08:21:39.081Z,29.55
2017-11-11T08:24:07.169Z,27.65
2017-11-11T08:26:35.510Z,31.05
2017-11-11T08:29:04.229Z,19.33
2017-11-11T08:31:32.676Z,29.63
2017-11-11T08:34:00.260Z,24.48
2017-11-11T08:36:28.950Z,26.37
2017-11-11T08:38:56.444Z,15.35
2017-11-11T08:41:23.984Z,18.25
2017-11-11T08:43:51.765Z,18.85
2017-11-11T08:46:19.274Z,21.35
2017-11-11T08:48:46.785Z,25.60
2017-11-11T08:51:14.303Z,25.70
2017-11-11T08:53:41.819Z,22.55
2017-11-11T08:56:09.380Z,18.45
2017-11-11T08:58:37.657Z,21.25
2017-11-11T09:01:05.929Z,19.37
2017-11-11T09:03:33.441Z,18.55
2017-11-11T09:06:00.968Z,21.08
2017-11-11T09:08:28.492Z,23.00
2017-11-11T09:10:56.774Z,17.33
2017-11-11T09:13:24.675Z,15.07
2017-11-11T09:15:52.416Z,22.73
2017-11-11T09:18:20.271Z,21.87
2017-11-11T09:20:48.574Z,18.98
2017-11-11T09:23:16.233Z,21.98
2017-11-11T09:25:44.722Z,22.40
2017-11-11T09:28:13.715Z,17.42
2017-11-11T09:30:41.279Z,15.43
2017-11-11T09:33:09.443Z,20.45
2017-11-11T09:35:38.105Z,16.55
2017-11-11T09:38:06.931Z,21.05
2017-11-11T09:40:34.467Z,23.58
2017-11-11T09:43:02.749Z,23.62
2017-11-11T09:45:31.034Z,16.75
2017-11-11T09:47:59.190Z,21.65
2017-11-11T09:50:31.575Z,21.62
2017-11-11T09:53:00.877Z,15.57
2017-11-11T09:55:33.215Z,19.90
2017-11-11T09:58:02.732Z,16.25
2017-11-11T10:00:30.675Z,18.65
2017-11-11T10:02:59.067Z,14.50
2017-11-11T10:05:26.637Z,17.48
2017-11-11T10:07:55.500Z,19.52
2017-11-11T10:10:23.731Z,22.85
2017-11-11T10:12:52.025Z,17.60
2017-11-11T10:15:19.763Z,17.52
2017-11-11T10:17:48.242Z,32.78
2017-11-11T10:20:16.619Z,47.97
2017-11-11T10:22:45.890Z,39.00
2017-11-11T10:25:13.453Z,42.50
2017-11-11T10:27:41.718Z,40.65
2017-11-11T10:30:09.271Z,51.40
2017-11-11T10:32:36.777Z,49.47
2017-11-11T10:35:05.242Z,61.37
2017-11-11T10:37:32.863Z,59.83
2017-11-11T10:40:00.510Z,58.78
2017-11-11T10:42:29.517Z,44.42
2017-11-11T10:44:57.374Z,45.47
2017-11-11T10:47:26.803Z,45.50
2017-11-11T10:49:56.118Z,43.97
2017-11-11T10:52:25.488Z,38.72
2017-11-11T10:54:54.070Z,40.67
2017-11-11T10:57:21.665Z,46.88
2017-11-11T10:59:49.284Z,40.03
2017-11-11T11:02:16.941Z,40.60
2017-11-11T11:04:44.887Z,39.15
2017-11-11T11:07:12.520Z,35.28
2017-11-11T11:09:48.698Z,32.55
2017-11-11T11:12:16.593Z,38.65
2017-11-11T11:14:44.393Z,31.85
2017-11-11T11:17:12.522Z,27.50
2017-11-11T11:19:40.116Z,29.42
2017-11-11T11:22:07.695Z,28.00
2017-11-11T11:24:35.267Z,33.60
2017-11-11T11:27:03.312Z,33.65
2017-11-11T11:29:31.490Z,31.85
2017-11-11T11:31:59.099Z,26.00
2017-11-11T11:34:26.628Z,23.25
2017-11-11T11:36:54.192Z,27.83
2017-11-11T11:39:22.494Z,29.17
2017-11-11T11:41:50.032Z,32.72
2017-11-11T11:44:18.331Z,28.07
2017-11-11T11:46:45.866Z,31.37
2017-11-11T11:49:14.678Z,30.88
2017-11-11T11:51:42.253Z,33.58
2017-11-11T11:54:10.701Z,30.20
2017-11-11T11:56:39.032Z,25.52
2017-11-11T11:59:06.568Z,31.23
2017-11-11T12:01:35.025Z,32.50
2017-11-11T12:04:02.561Z,23.25
2017-11-11T12:06:30.110Z,26.23
2017-11-11T12:08:58.520Z,27.40
2017-11-11T12:11:26.053Z,25.80
2017-11-11T12:13:53.607Z,25.55
2017-11-11T12:16:21.284Z,25.12
2017-11-11T12:18:49.568Z,25.88
2017-11-11T12:21:17.948Z,31.62
2017-11-11T12:23:46.261Z,26.08
2017-11-11T12:26:13.837Z,26.98
2017-11-11T12:28:41.401Z,24.80
2017-11-11T12:31:09.461Z,22.35
2017-11-11T12:33:37.179Z,28.27
2017-11-11T12:36:04.823Z,29.50
2017-11-11T12:38:33.097Z,25.15
2017-11-11T12:41:00.642Z,25.58
2017-11-11T12:43:28.205Z,23.08
2017-11-11T12:45:55.925Z,25.75
2017-11-11T12:48:23.658Z,21.10
2017-11-11T12:50:51.307Z,19.25
2017-11-11T12:53:19.072Z,24.17
2017-11-11T12:55:48.375Z,24.98
2017-11-11T12:58:16.389Z,20.27
2017-11-11T13:00:44.218Z,26.17
2017-11-11T13:03:12.120Z,26.40
2017-11-11T13:05:39.734Z,24.48
2017-11-11T13:08:07.352Z,24.37
2017-11-11T13:10:35.317Z,22.55
2017-11-11T13:13:03.644Z,21.07
2017-11-11T13:15:31.558Z,21.17
2017-11-11T13:18:00.391Z,19.93
2017-11-11T13:20:28.948Z,21.02
2017-11-11T13:22:56.626Z,17.37
2017-11-11T13:25:24.425Z,18.20
2017-11-11T13:27:51.985Z,19.50
2017-11-11T13:30:20.411Z,18.47
2017-11-11T13:32:49.274Z,17.62
2017-11-11T13:35:17.697Z,15.00
2017-11-11T13:37:45.445Z,16.50
2017-11-11T13:40:13.015Z,15.23
2017-11-11T13:42:40.667Z,17.40
2017-11-11T13:45:08.251Z,17.00
2017-11-11T13:47:35.942Z,15.40
2017-11-11T13:50:03.654Z,15.60
2017-11-11T13:52:31.410Z,15.30
2017-11-11T13:55:00.513Z,15.83
2017-11-11T13:57:28.053Z,14.87
2017-11-11T13:59:55.719Z,18.90
2017-11-11T14:02:23.615Z,18.73
2017-11-11T14:04:51.184Z,20.77
2017-11-11T14:07:18.795Z,20.83
2017-11-11T14:09:46.543Z,21.13
2017-11-11T14:12:14.250Z,22.60
2017-11-11T14:14:41.974Z,24.60
2017-11-11T14:17:09.651Z,24.27
2017-11-11T14:19:37.353Z,24.73
2017-11-11T14:22:05.085Z,28.47
2017-11-11T14:24:32.765Z,28.97
2017-11-11T14:27:00.717Z,31.63
2017-11-11T14:29:28.353Z,33.00
2017-11-11T14:31:56.106Z,34.80
2017-11-11T14:34:23.839Z,34.47
2017-11-11T14:36:51.553Z,34.38
2017-11-11T14:39:19.202Z,37.53
2017-11-11T14:41:46.924Z,42.40
2017-11-11T14:44:14.586Z,41.08
2017-11-11T14:46:42.273Z,49.78
2017-11-11T14:49:10.101Z,42.85
2017-11-11T14:51:37.892Z,49.58
2017-11-11T14:54:05.558Z,50.12
2017-11-11T14:56:34.033Z,48.20
2017-11-11T14:59:01.575Z,54.05
2017-11-11T15:01:29.821Z,53.15
2017-11-11T15:03:57.494Z,48.13
2017-11-11T15:06:25.180Z,46.55
2017-11-11T15:08:52.838Z,48.33
2017-11-11T15:11:20.441Z,42.50
2017-11-11T15:13:48.880Z,43.28
2017-11-11T15:16:16.522Z,32.50
2017-11-11T15:18:44.176Z,33.90
2017-11-11T15:21:11.967Z,33.30
2017-11-11T15:23:39.654Z,33.03
2017-11-11T15:26:08.686Z,32.00
2017-11-11T15:28:36.931Z,33.00
2017-11-11T15:31:04.831Z,29.48
2017-11-11T15:33:32.469Z,33.38
2017-11-11T15:36:01.015Z,38.20
2017-11-11T15:38:28.637Z,37.22
2017-11-11T15:40:56.329Z,30.55
2017-11-11T15:43:24.149Z,32.67
2017-11-11T15:45:51.874Z,33.15
2017-11-11T15:48:20.266Z,34.42
2017-11-11T15:50:48.739Z,33.30
2017-11-11T15:53:16.413Z,38.38
2017-11-11T15:55:44.823Z,36.28
2017-11-11T15:58:12.640Z,34.53
2017-11-11T16:00:41.102Z,32.47
2017-11-11T16:03:08.893Z,35.80
2017-11-11T16:05:36.682Z,38.05
2017-11-11T16:08:05.140Z,33.15
2017-11-11T16:10:33.746Z,30.50
2017-11-11T16:13:01.790Z,32.15
2017-11-11T16:15:29.964Z,37.63
2017-11-11T16:17:58.559Z,34.90
2017-11-11T16:20:26.464Z,32.22
2017-11-11T16:22:54.424Z,36.72
2017-11-11T16:25:22.195Z,34.65
2017-11-11T16:27:49.889Z,37.38
2017-11-11T16:30:17.622Z,30.27
2017-11-11T16:32:45.618Z,30.48
2017-11-11T16:35:14.374Z,31.55
2017-11-11T16:37:42.530Z,25.35
2017-11-11T16:40:10.365Z,31.90
2017-11-11T16:42:38.115Z,30.90
2017-11-11T16:45:05.904Z,34.05
2017-11-11T16:47:34.968Z,27.67
2017-11-11T16:50:03.535Z,31.37
2017-11-11T16:52:31.212Z,38.45
2017-11-11T16:54:59.192Z,36.90
2017-11-11T16:57:27.681Z,36.92
2017-11-11T16:59:55.483Z,38.88
2017-11-11T17:02:23.230Z,35.97
2017-11-11T17:04:50.806Z,39.70
2017-11-11T17:07:19.361Z,32.50
2017-11-11T17:09:48.161Z,36.88
2017-11-11T17:12:17.782Z,32.92
2017-11-11T17:14:45.644Z,28.42
2017-11-11T17:17:14.108Z,36.47
2017-11-11T17:19:41.704Z,31.85
2017-11-11T17:22:10.160Z,30.15
2017-11-11T17:24:38.729Z,30.23
2017-11-11T17:27:06.888Z,32.63
2017-11-11T17:29:35.382Z,30.42
2017-11-11T17:32:03.328Z,29.98
2017-11-11T17:34:31.096Z,29.40
2017-11-11T17:36:59.395Z,30.05
2017-11-11T17:39:27.221Z,31.67
2017-11-11T17:41:54.958Z,31.90
2017-11-11T17:44:22.932Z,38.60
2017-11-11T17:46:50.616Z,33.42
2017-11-11T17:49:18.221Z,30.33
2017-11-11T17:51:45.827Z,40.05
2017-11-11T17:54:15.158Z,32.88
2017-11-11T17:56:42.926Z,35.85
2017-11-11T17:59:10.686Z,36.70
2017-11-11T18:01:38.401Z,35.58
2017-11-11T18:04:06.182Z,40.38
2017-11-11T18:06:33.978Z,40.20
2017-11-11T18:09:01.685Z,41.33
2017-11-11T18:11:30.258Z,39.65
2017-11-11T18:13:57.893Z,35.17
2017-11-11T18:16:25.719Z,37.90
2017-11-11T18:18:53.415Z,39.72
2017-11-11T18:21:21.154Z,39.80
2017-11-11T18:23:50.222Z,33.80
2017-11-11T18:26:20.577Z,35.15
2017-11-11T18:28:49.272Z,40.90
2017-11-11T18:31:17.473Z,44.63
2017-11-11T18:33:45.553Z,43.97
2017-11-11T18:36:14.171Z,38.35
2017-11-11T18:38:42.366Z,32.78
2017-11-11T18:41:10.216Z,30.30
2017-11-11T18:43:38.027Z,32.92
2017-11-11T18:46:05.685Z,39.50
2017-11-11T18:48:33.268Z,39.45
2017-11-11T18:51:00.858Z,38.42
2017-11-11T18:53:29.157Z,37.00
2017-11-11T18:55:56.739Z,37.90
2017-11-11T18:58:24.443Z,36.63
2017-11-11T19:00:53.006Z,37.75
2017-11-11T19:03:21.671Z,37.72
2017-11-11T19:05:49.286Z,33.50
2017-11-11T19:08:17.592Z,32.83
2017-11-11T19:10:45.169Z,37.00
2017-11-11T19:13:12.784Z,30.73
2017-11-11T19:15:41.192Z,34.55
2017-11-11T19:18:08.935Z,37.10
2017-11-11T19:20:36.598Z,41.92
2017-11-11T19:23:04.309Z,38.17
2017-11-11T19:25:31.822Z,35.97
2017-11-11T19:28:01.146Z,29.27
2017-11-11T19:30:29.406Z,32.15
2017-11-11T19:32:57.292Z,31.48
2017-11-11T19:35:24.845Z,35.90
2017-11-11T19:37:52.390Z,37.40
2017-11-11T19:40:20.959Z,40.75
2017-11-11T19:42:48.790Z,35.45
2017-11-11T19:45:16.329Z,31.15
2017-11-11T19:47:43.866Z,30.80
2017-11-11T19:50:11.382Z,33.95
2017-11-11T19:52:38.976Z,34.58
2017-11-11T19:55:07.361Z,34.17
2017-11-11T19:57:34.990Z,30.15
2017-11-11T20:00:03.311Z,28.38
2017-11-11T20:02:30.923Z,26.58
2017-11-11T20:04:58.574Z,26.90
2017-11-11T20:07:26.211Z,31.83
2017-11-11T20:09:53.738Z,34.40
2017-11-11T20:12:22.227Z,30.00
2017-11-11T20:14:50.574Z,33.60
2017-11-11T20:17:18.404Z,28.73
2017-11-11T20:19:46.595Z,30.23
2017-11-11T20:22:14.293Z,26.62
2017-11-11T20:24:41.999Z,32.80
2017-11-11T20:27:09.518Z,29.63
2017-11-11T20:29:38.498Z,27.40
2017-11-11T20:32:07.441Z,38.92
2017-11-11T20:34:35.280Z,27.45
2017-11-11T20:37:03.434Z,30.77
2017-11-11T20:39:32.254Z,33.72
2017-11-11T20:41:59.844Z,29.33
2017-11-11T20:44:28.686Z,32.00
2017-11-11T20:46:57.590Z,39.80
2017-11-11T20:49:26.139Z,32.17
2017-11-11T20:51:54.435Z,32.78
2017-11-11T20:54:22.792Z,28.25
2017-11-11T20:56:51.009Z,33.78
2017-11-11T20:59:18.547Z,39.20
2017-11-11T21:01:46.350Z,28.42
2017-11-11T21:04:14.651Z,26.70
2017-11-11T21:06:43.074Z,30.50
2017-11-11T21:09:11.152Z,26.60
2017-11-11T21:11:39.667Z,21.60
2017-11-11T21:14:08.379Z,22.87
2017-11-11T21:16:36.442Z,27.87
2017-11-11T21:19:03.985Z,24.83
2017-11-11T21:21:31.976Z,22.17
2017-11-11T21:24:00.562Z,21.50
2017-11-11T21:26:30.870Z,24.20
2017-11-11T21:28:59.186Z,23.00
2017-11-11T21:31:28.327Z,20.98
2017-11-11T21:33:56.457Z,24.80
2017-11-11T21:36:24.240Z,25.20
2017-11-11T21:38:52.457Z,18.90
2017-11-11T21:41:20.670Z,21.25
2017-11-11T21:43:48.847Z,19.67
2017-11-11T21:46:17.667Z,23.30
2017-11-11T21:48:46.043Z,22.02
2017-11-11T21:51:13.609Z,23.90
2017-11-11T21:53:42.722Z,24.08
2017-11-11T21:56:10.966Z,21.15
2017-11-11T21:58:39.183Z,21.33
2017-11-11T22:01:07.541Z,18.70
2017-11-11T22:03:36.115Z,23.30
2017-11-11T22:06:04.636Z,21.35
2017-11-11T22:08:33.814Z,32.58
2017-11-11T22:11:03.249Z,45.55
2017-11-11T22:13:31.870Z,44.15
2017-11-11T22:16:01.051Z,44.95
2017-11-11T22:18:29.768Z,46.63
2017-11-11T22:20:58.928Z,51.40
2017-11-11T22:23:26.851Z,38.00
2017-11-11T22:25:54.853Z,36.70
2017-11-11T22:28:22.728Z,37.70
2017-11-11T22:30:50.733Z,26.35
2017-11-11T22:33:18.830Z,37.83
2017-11-11T22:35:47.389Z,38.15
2017-11-11T22:38:15.564Z,27.13
2017-11-11T22:40:43.631Z,22.40
2017-11-11T22:43:11.570Z,25.15
2017-11-11T22:45:39.626Z,23.35
2017-11-11T22:48:07.749Z,20.37
2017-11-11T22:50:36.084Z,23.27
2017-11-11T22:53:04.239Z,20.00
2017-11-11T22:55:32.229Z,20.58
2017-11-11T22:58:01.062Z,19.42
2017-11-11T23:00:40.036Z,24.40
2017-11-11T23:03:07.964Z,26.55
2017-11-11T23:05:36.547Z,23.08
2017-11-11T23:08:05.379Z,20.58
2017-11-11T23:10:33.429Z,25.00
2017-11-11T23:13:01.320Z,23.48
2017-11-11T23:15:29.958Z,24.58
2017-11-11T23:18:01.916Z,21.92
2017-11-11T23:20:30.203Z,20.15
2017-11-11T23:22:58.170Z,21.12
2017-11-11T23:25:26.185Z,19.20
2017-11-11T23:27:56.389Z,23.42
2017-11-11T23:30:24.425Z,23.33
2017-11-11T23:32:52.604Z,21.58
2017-11-11T23:35:20.620Z,22.62
2017-11-11T23:37:49.111Z,25.08
2017-11-11T23:40:16.739Z,27.35
2017-11-11T23:42:44.716Z,26.33
2017-11-11T23:45:12.614Z,25.00
2017-11-11T23:47:40.533Z,28.85
2017-11-11T23:50:08.636Z,27.00
2017-11-11T23:52:36.896Z,30.23
2017-11-11T23:55:05.275Z,30.02
2017-11-11T23:57:33.937Z,30.10
